sensor_id;sensor_type;location;lat;lon;timestamp;temperature;humidity
21627;DHT22;10975;47.872;12.972;2023-07-31T00:00:52;17.80;99.90
21627;DHT22;10975;47.872;12.972;2023-07-31T00:03:19;17.70;99.90
21627;DHT22;10975;47.872;12.972;2023-07-31T00:05:46;17.70;99.90
21627;DHT22;10975;47.872;12.972;2023-07-31T00:08:12;17.70;99.90
21627;DHT22;10975;47.872;12.972;2023-07-31T00:10:39;17.70;99.90
21627;DHT22;10975;47.872;12.972;2023-07-31T00:13:06;17.70;99.90
21627;DHT22;10975;47.872;12.972;2023-07-31T00:15:32;17.70;99.90
21627;DHT22;10975;47.872;12.972;2023-07-31T00:17:59;17.80;99.90
21627;DHT22;10975;47.872;12.972;2023-07-31T00:20:27;17.70;99.90
21627;DHT22;10975;47.872;12.972;2023-07-31T00:22:55;17.70;99.90
21627;DHT22;10975;47.872;12.972;2023-07-31T00:25:22;17.60;99.90
21627;DHT22;10975;47.872;12.972;2023-07-31T00:27:49;17.70;99.90
21627;DHT22;10975;47.872;12.972;2023-07-31T00:30:16;17.70;99.90
21627;DHT22;10975;47.872;12.972;2023-07-31T00:32:42;17.60;99.90
21627;DHT22;10975;47.872;12.972;2023-07-31T00:35:09;17.60;99.90
21627;DHT22;10975;47.872;12.972;2023-07-31T00:37:36;17.50;99.90
21627;DHT22;10975;47.872;12.972;2023-07-31T00:40:02;17.50;99.90
21627;DHT22;10975;47.872;12.972;2023-07-31T00:42:30;17.40;99.90
21627;DHT22;10975;47.872;12.972;2023-07-31T00:44:57;17.40;99.90
21627;DHT22;10975;47.872;12.972;2023-07-31T00:47:23;17.40;99.90
21627;DHT22;10975;47.872;12.972;2023-07-31T00:49:50;17.30;99.90
21627;DHT22;10975;47.872;12.972;2023-07-31T00:52:18;17.30;99.90
21627;DHT22;10975;47.872;12.972;2023-07-31T00:54:45;17.40;99.90
21627;DHT22;10975;47.872;12.972;2023-07-31T00:57:11;17.40;99.90
21627;DHT22;10975;47.872;12.972;2023-07-31T00:59:38;17.30;99.90
21627;DHT22;10975;47.872;12.972;2023-07-31T01:02:05;17.20;99.90
21627;DHT22;10975;47.872;12.972;2023-07-31T01:04:32;17.20;99.90
21627;DHT22;10975;47.872;12.972;2023-07-31T01:07:05;17.10;99.90
21627;DHT22;10975;47.872;12.972;2023-07-31T01:12:14;16.90;99.90
21627;DHT22;10975;47.872;12.972;2023-07-31T01:14:50;16.80;99.90
21627;DHT22;10975;47.872;12.972;2023-07-31T01:17:17;16.80;99.90
21627;DHT22;10975;47.872;12.972;2023-07-31T01:19:44;16.70;99.90
21627;DHT22;10975;47.872;12.972;2023-07-31T01:27:10;16.40;99.90
21627;DHT22;10975;47.872;12.972;2023-07-31T01:29:43;16.30;99.90
21627;DHT22;10975;47.872;12.972;2023-07-31T01:32:11;16.30;99.90
21627;DHT22;10975;47.872;12.972;2023-07-31T01:34:38;16.30;99.90
21627;DHT22;10975;47.872;12.972;2023-07-31T01:37:05;16.20;99.90
21627;DHT22;10975;47.872;12.972;2023-07-31T01:39:32;16.10;99.90
21627;DHT22;10975;47.872;12.972;2023-07-31T01:41:59;16.10;99.90
21627;DHT22;10975;47.872;12.972;2023-07-31T01:44:26;16.10;99.90
21627;DHT22;10975;47.872;12.972;2023-07-31T01:46:52;16.00;99.90
21627;DHT22;10975;47.872;12.972;2023-07-31T01:49:19;16.00;99.90
21627;DHT22;10975;47.872;12.972;2023-07-31T01:51:46;16.00;99.90
21627;DHT22;10975;47.872;12.972;2023-07-31T01:54:12;16.00;99.90
21627;DHT22;10975;47.872;12.972;2023-07-31T01:56:39;16.00;99.90
21627;DHT22;10975;47.872;12.972;2023-07-31T01:59:06;16.00;99.90
21627;DHT22;10975;47.872;12.972;2023-07-31T02:01:33;16.00;99.90
21627;DHT22;10975;47.872;12.972;2023-07-31T02:04:00;15.90;99.90
21627;DHT22;10975;47.872;12.972;2023-07-31T02:06:27;15.70;99.90
21627;DHT22;10975;47.872;12.972;2023-07-31T02:08:53;15.70;99.90
21627;DHT22;10975;47.872;12.972;2023-07-31T02:11:20;15.80;99.90
21627;DHT22;10975;47.872;12.972;2023-07-31T02:13:47;15.80;99.90
21627;DHT22;10975;47.872;12.972;2023-07-31T02:16:13;15.90;99.90
21627;DHT22;10975;47.872;12.972;2023-07-31T02:18:40;15.80;99.90
21627;DHT22;10975;47.872;12.972;2023-07-31T02:21:07;15.90;99.90
21627;DHT22;10975;47.872;12.972;2023-07-31T02:23:33;15.90;99.90
21627;DHT22;10975;47.872;12.972;2023-07-31T02:26:00;15.90;99.90
21627;DHT22;10975;47.872;12.972;2023-07-31T02:28:27;15.80;99.90
21627;DHT22;10975;47.872;12.972;2023-07-31T02:30:54;15.80;99.90
21627;DHT22;10975;47.872;12.972;2023-07-31T02:33:20;15.80;99.90
21627;DHT22;10975;47.872;12.972;2023-07-31T02:35:47;15.70;99.90
21627;DHT22;10975;47.872;12.972;2023-07-31T02:38:14;15.60;99.90
21627;DHT22;10975;47.872;12.972;2023-07-31T02:40:40;15.60;99.90
21627;DHT22;10975;47.872;12.972;2023-07-31T02:43:10;15.50;99.90
21627;DHT22;10975;47.872;12.972;2023-07-31T02:45:37;15.60;99.90
21627;DHT22;10975;47.872;12.972;2023-07-31T02:48:03;15.60;99.90
21627;DHT22;10975;47.872;12.972;2023-07-31T02:50:30;15.50;99.90
21627;DHT22;10975;47.872;12.972;2023-07-31T02:52:58;15.50;99.90
21627;DHT22;10975;47.872;12.972;2023-07-31T02:55:25;15.60;99.90
21627;DHT22;10975;47.872;12.972;2023-07-31T02:57:51;15.70;99.90
21627;DHT22;10975;47.872;12.972;2023-07-31T03:00:19;15.70;99.90
21627;DHT22;10975;47.872;12.972;2023-07-31T03:02:45;15.80;99.90
21627;DHT22;10975;47.872;12.972;2023-07-31T03:05:12;15.90;99.90
21627;DHT22;10975;47.872;12.972;2023-07-31T03:07:39;15.90;99.90
21627;DHT22;10975;47.872;12.972;2023-07-31T03:10:05;15.90;99.90
21627;DHT22;10975;47.872;12.972;2023-07-31T03:12:32;15.90;99.90
21627;DHT22;10975;47.872;12.972;2023-07-31T03:14:59;15.80;99.90
21627;DHT22;10975;47.872;12.972;2023-07-31T03:17:26;15.70;99.90
21627;DHT22;10975;47.872;12.972;2023-07-31T03:19:52;15.70;99.90
21627;DHT22;10975;47.872;12.972;2023-07-31T03:22:19;15.60;99.90
21627;DHT22;10975;47.872;12.972;2023-07-31T03:24:46;15.40;99.90
21627;DHT22;10975;47.872;12.972;2023-07-31T03:27:12;15.30;99.90
21627;DHT22;10975;47.872;12.972;2023-07-31T03:29:39;15.30;99.90
21627;DHT22;10975;47.872;12.972;2023-07-31T03:32:06;15.40;99.90
21627;DHT22;10975;47.872;12.972;2023-07-31T03:34:32;15.30;99.90
21627;DHT22;10975;47.872;12.972;2023-07-31T03:37:00;15.40;99.90
21627;DHT22;10975;47.872;12.972;2023-07-31T03:39:27;15.30;99.90
21627;DHT22;10975;47.872;12.972;2023-07-31T03:41:53;15.30;99.90
21627;DHT22;10975;47.872;12.972;2023-07-31T03:44:20;15.30;99.90
21627;DHT22;10975;47.872;12.972;2023-07-31T03:46:47;15.30;99.90
21627;DHT22;10975;47.872;12.972;2023-07-31T03:49:14;15.30;99.90
21627;DHT22;10975;47.872;12.972;2023-07-31T03:51:40;15.20;99.90
21627;DHT22;10975;47.872;12.972;2023-07-31T03:54:08;15.20;99.90
21627;DHT22;10975;47.872;12.972;2023-07-31T03:56:35;15.20;99.90
21627;DHT22;10975;47.872;12.972;2023-07-31T03:59:02;15.20;99.90
21627;DHT22;10975;47.872;12.972;2023-07-31T04:01:28;15.20;99.90
21627;DHT22;10975;47.872;12.972;2023-07-31T04:03:55;15.10;99.90
21627;DHT22;10975;47.872;12.972;2023-07-31T04:06:22;15.20;99.90
21627;DHT22;10975;47.872;12.972;2023-07-31T04:08:48;15.10;99.90
21627;DHT22;10975;47.872;12.972;2023-07-31T04:11:15;15.10;99.90
21627;DHT22;10975;47.872;12.972;2023-07-31T04:13:42;15.10;99.90
21627;DHT22;10975;47.872;12.972;2023-07-31T04:16:09;15.10;99.90
21627;DHT22;10975;47.872;12.972;2023-07-31T04:18:35;15.00;99.90
21627;DHT22;10975;47.872;12.972;2023-07-31T04:21:02;15.10;99.90
21627;DHT22;10975;47.872;12.972;2023-07-31T04:23:29;15.20;99.90
21627;DHT22;10975;47.872;12.972;2023-07-31T04:25:56;15.20;99.90
21627;DHT22;10975;47.872;12.972;2023-07-31T04:28:22;15.20;99.90
21627;DHT22;10975;47.872;12.972;2023-07-31T04:30:49;15.30;99.90
21627;DHT22;10975;47.872;12.972;2023-07-31T04:33:16;15.40;99.90
21627;DHT22;10975;47.872;12.972;2023-07-31T04:35:48;15.50;99.90
21627;DHT22;10975;47.872;12.972;2023-07-31T04:38:19;15.50;99.90
21627;DHT22;10975;47.872;12.972;2023-07-31T04:40:45;15.60;99.90
21627;DHT22;10975;47.872;12.972;2023-07-31T04:43:12;15.50;99.90
21627;DHT22;10975;47.872;12.972;2023-07-31T04:45:39;15.50;99.90
21627;DHT22;10975;47.872;12.972;2023-07-31T04:48:05;15.60;99.90
21627;DHT22;10975;47.872;12.972;2023-07-31T04:50:32;15.60;99.90
21627;DHT22;10975;47.872;12.972;2023-07-31T04:52:59;15.70;99.90
21627;DHT22;10975;47.872;12.972;2023-07-31T04:55:26;15.70;99.90
21627;DHT22;10975;47.872;12.972;2023-07-31T04:57:52;15.60;99.90
21627;DHT22;10975;47.872;12.972;2023-07-31T05:00:19;15.70;99.90
21627;DHT22;10975;47.872;12.972;2023-07-31T05:02:46;15.80;99.90
21627;DHT22;10975;47.872;12.972;2023-07-31T05:05:13;15.80;99.90
21627;DHT22;10975;47.872;12.972;2023-07-31T05:07:39;15.90;99.90
21627;DHT22;10975;47.872;12.972;2023-07-31T05:10:06;15.90;99.90
21627;DHT22;10975;47.872;12.972;2023-07-31T05:12:33;15.80;99.90
21627;DHT22;10975;47.872;12.972;2023-07-31T05:15:00;15.90;99.90
21627;DHT22;10975;47.872;12.972;2023-07-31T05:17:26;15.90;99.90
21627;DHT22;10975;47.872;12.972;2023-07-31T05:19:53;16.00;99.90
21627;DHT22;10975;47.872;12.972;2023-07-31T05:22:20;16.10;99.90
21627;DHT22;10975;47.872;12.972;2023-07-31T05:24:48;16.20;99.90
21627;DHT22;10975;47.872;12.972;2023-07-31T05:27:14;16.30;99.90
21627;DHT22;10975;47.872;12.972;2023-07-31T05:29:44;16.40;99.90
21627;DHT22;10975;47.872;12.972;2023-07-31T05:32:11;16.50;99.90
21627;DHT22;10975;47.872;12.972;2023-07-31T05:34:38;16.60;99.90
21627;DHT22;10975;47.872;12.972;2023-07-31T05:37:05;16.70;99.90
21627;DHT22;10975;47.872;12.972;2023-07-31T05:39:32;16.80;99.90
21627;DHT22;10975;47.872;12.972;2023-07-31T05:41:59;16.90;99.90
21627;DHT22;10975;47.872;12.972;2023-07-31T05:44:25;17.00;99.90
21627;DHT22;10975;47.872;12.972;2023-07-31T05:46:52;17.00;99.90
21627;DHT22;10975;47.872;12.972;2023-07-31T05:49:19;17.10;99.90
21627;DHT22;10975;47.872;12.972;2023-07-31T05:51:45;17.10;99.90
21627;DHT22;10975;47.872;12.972;2023-07-31T05:54:12;17.20;99.90
21627;DHT22;10975;47.872;12.972;2023-07-31T05:56:39;17.30;99.90
21627;DHT22;10975;47.872;12.972;2023-07-31T05:59:06;17.40;99.90
21627;DHT22;10975;47.872;12.972;2023-07-31T06:01:32;17.50;99.90
21627;DHT22;10975;47.872;12.972;2023-07-31T06:03:59;17.50;99.90
21627;DHT22;10975;47.872;12.972;2023-07-31T06:06:26;17.50;99.90
21627;DHT22;10975;47.872;12.972;2023-07-31T06:08:53;17.50;99.90
21627;DHT22;10975;47.872;12.972;2023-07-31T06:11:20;17.40;99.90
21627;DHT22;10975;47.872;12.972;2023-07-31T06:13:47;17.50;99.90
21627;DHT22;10975;47.872;12.972;2023-07-31T06:16:14;17.50;99.90
21627;DHT22;10975;47.872;12.972;2023-07-31T06:18:42;17.60;99.90
21627;DHT22;10975;47.872;12.972;2023-07-31T06:21:09;17.60;99.90
21627;DHT22;10975;47.872;12.972;2023-07-31T06:23:36;17.70;99.90
21627;DHT22;10975;47.872;12.972;2023-07-31T06:26:03;17.80;99.90
21627;DHT22;10975;47.872;12.972;2023-07-31T06:28:30;18.00;99.90
21627;DHT22;10975;47.872;12.972;2023-07-31T06:30:57;18.00;99.90
21627;DHT22;10975;47.872;12.972;2023-07-31T06:33:24;18.10;99.90
21627;DHT22;10975;47.872;12.972;2023-07-31T06:35:51;18.20;99.90
21627;DHT22;10975;47.872;12.972;2023-07-31T06:38:21;18.20;99.90
21627;DHT22;10975;47.872;12.972;2023-07-31T06:40:48;18.30;99.90
21627;DHT22;10975;47.872;12.972;2023-07-31T06:43:15;18.50;99.90
21627;DHT22;10975;47.872;12.972;2023-07-31T06:45:42;18.50;99.90
21627;DHT22;10975;47.872;12.972;2023-07-31T06:48:08;18.70;99.90
21627;DHT22;10975;47.872;12.972;2023-07-31T06:50:36;18.80;99.90
21627;DHT22;10975;47.872;12.972;2023-07-31T06:53:03;18.90;99.90
21627;DHT22;10975;47.872;12.972;2023-07-31T06:55:30;18.90;99.90
21627;DHT22;10975;47.872;12.972;2023-07-31T06:57:57;19.00;99.90
21627;DHT22;10975;47.872;12.972;2023-07-31T07:00:24;19.10;99.90
21627;DHT22;10975;47.872;12.972;2023-07-31T07:02:50;19.20;99.90
21627;DHT22;10975;47.872;12.972;2023-07-31T07:05:17;19.30;99.90
21627;DHT22;10975;47.872;12.972;2023-07-31T07:07:44;19.30;99.90
21627;DHT22;10975;47.872;12.972;2023-07-31T07:10:11;19.40;99.90
21627;DHT22;10975;47.872;12.972;2023-07-31T07:12:40;19.50;99.90
21627;DHT22;10975;47.872;12.972;2023-07-31T07:15:07;19.60;99.90
21627;DHT22;10975;47.872;12.972;2023-07-31T07:17:34;19.70;99.90
21627;DHT22;10975;47.872;12.972;2023-07-31T07:20:01;19.80;99.90
21627;DHT22;10975;47.872;12.972;2023-07-31T07:22:27;20.00;99.90
21627;DHT22;10975;47.872;12.972;2023-07-31T07:24:54;20.00;99.90
21627;DHT22;10975;47.872;12.972;2023-07-31T07:27:21;20.10;99.90
21627;DHT22;10975;47.872;12.972;2023-07-31T07:29:50;20.30;99.90
21627;DHT22;10975;47.872;12.972;2023-07-31T07:32:16;20.30;99.90
21627;DHT22;10975;47.872;12.972;2023-07-31T07:34:44;20.50;99.90
21627;DHT22;10975;47.872;12.972;2023-07-31T07:37:11;20.50;99.90
21627;DHT22;10975;47.872;12.972;2023-07-31T07:39:38;20.70;99.90
21627;DHT22;10975;47.872;12.972;2023-07-31T07:42:04;20.80;99.90
21627;DHT22;10975;47.872;12.972;2023-07-31T07:44:31;20.80;99.90
21627;DHT22;10975;47.872;12.972;2023-07-31T07:46:58;20.90;99.90
21627;DHT22;10975;47.872;12.972;2023-07-31T07:49:25;20.90;99.90
21627;DHT22;10975;47.872;12.972;2023-07-31T07:51:51;20.90;99.90
21627;DHT22;10975;47.872;12.972;2023-07-31T07:54:18;20.90;99.90
21627;DHT22;10975;47.872;12.972;2023-07-31T07:56:46;20.90;99.90
21627;DHT22;10975;47.872;12.972;2023-07-31T07:59:13;21.00;99.90
21627;DHT22;10975;47.872;12.972;2023-07-31T08:01:40;21.00;99.90
21627;DHT22;10975;47.872;12.972;2023-07-31T08:04:07;21.00;99.90
21627;DHT22;10975;47.872;12.972;2023-07-31T08:06:33;21.10;99.90
21627;DHT22;10975;47.872;12.972;2023-07-31T08:09:00;21.20;99.90
21627;DHT22;10975;47.872;12.972;2023-07-31T08:11:32;21.30;99.90
21627;DHT22;10975;47.872;12.972;2023-07-31T08:13:59;21.30;99.90
21627;DHT22;10975;47.872;12.972;2023-07-31T08:16:26;21.40;99.90
21627;DHT22;10975;47.872;12.972;2023-07-31T08:18:53;21.40;99.90
21627;DHT22;10975;47.872;12.972;2023-07-31T08:21:20;21.40;99.90
21627;DHT22;10975;47.872;12.972;2023-07-31T08:23:47;21.40;99.90
21627;DHT22;10975;47.872;12.972;2023-07-31T08:26:17;21.40;99.90
21627;DHT22;10975;47.872;12.972;2023-07-31T08:28:44;21.50;99.90
21627;DHT22;10975;47.872;12.972;2023-07-31T08:31:11;21.50;99.90
21627;DHT22;10975;47.872;12.972;2023-07-31T08:33:38;21.60;99.90
21627;DHT22;10975;47.872;12.972;2023-07-31T08:36:05;21.60;99.90
21627;DHT22;10975;47.872;12.972;2023-07-31T08:38:32;21.70;99.90
21627;DHT22;10975;47.872;12.972;2023-07-31T08:40:59;21.90;99.90
21627;DHT22;10975;47.872;12.972;2023-07-31T08:43:26;22.00;99.90
21627;DHT22;10975;47.872;12.972;2023-07-31T08:45:53;22.10;99.90
21627;DHT22;10975;47.872;12.972;2023-07-31T08:48:20;22.10;99.90
21627;DHT22;10975;47.872;12.972;2023-07-31T08:50:47;22.10;99.90
21627;DHT22;10975;47.872;12.972;2023-07-31T08:53:14;22.30;99.90
21627;DHT22;10975;47.872;12.972;2023-07-31T08:55:41;22.50;99.90
21627;DHT22;10975;47.872;12.972;2023-07-31T08:58:08;22.70;99.90
21627;DHT22;10975;47.872;12.972;2023-07-31T09:00:35;22.80;99.90
21627;DHT22;10975;47.872;12.972;2023-07-31T09:03:03;22.90;99.90
21627;DHT22;10975;47.872;12.972;2023-07-31T09:05:30;22.90;99.90
21627;DHT22;10975;47.872;12.972;2023-07-31T09:07:57;22.80;99.90
21627;DHT22;10975;47.872;12.972;2023-07-31T09:10:26;22.80;99.90
21627;DHT22;10975;47.872;12.972;2023-07-31T09:12:53;22.50;99.90
21627;DHT22;10975;47.872;12.972;2023-07-31T09:15:21;22.40;99.90
21627;DHT22;10975;47.872;12.972;2023-07-31T09:18:02;22.30;99.90
21627;DHT22;10975;47.872;12.972;2023-07-31T09:20:30;22.30;99.90
21627;DHT22;10975;47.872;12.972;2023-07-31T09:23:04;22.50;99.90
21627;DHT22;10975;47.872;12.972;2023-07-31T09:25:31;22.70;99.90
21627;DHT22;10975;47.872;12.972;2023-07-31T09:28:00;22.60;99.90
21627;DHT22;10975;47.872;12.972;2023-07-31T09:30:27;22.60;99.90
21627;DHT22;10975;47.872;12.972;2023-07-31T09:33:01;22.60;99.90
21627;DHT22;10975;47.872;12.972;2023-07-31T09:35:29;22.70;99.90
21627;DHT22;10975;47.872;12.972;2023-07-31T09:38:00;22.50;99.90
21627;DHT22;10975;47.872;12.972;2023-07-31T09:40:27;22.30;99.90
21627;DHT22;10975;47.872;12.972;2023-07-31T09:43:02;22.30;99.90
21627;DHT22;10975;47.872;12.972;2023-07-31T09:45:29;22.30;99.90
21627;DHT22;10975;47.872;12.972;2023-07-31T09:48:25;22.20;99.90
21627;DHT22;10975;47.872;12.972;2023-07-31T09:50:53;22.20;99.90
21627;DHT22;10975;47.872;12.972;2023-07-31T09:53:27;22.20;99.90
21627;DHT22;10975;47.872;12.972;2023-07-31T09:55:54;22.30;99.90
21627;DHT22;10975;47.872;12.972;2023-07-31T09:58:21;22.40;99.90
21627;DHT22;10975;47.872;12.972;2023-07-31T10:00:47;22.70;99.90
21627;DHT22;10975;47.872;12.972;2023-07-31T10:03:14;22.80;99.90
21627;DHT22;10975;47.872;12.972;2023-07-31T10:05:45;22.80;99.90
21627;DHT22;10975;47.872;12.972;2023-07-31T10:08:13;22.80;99.90
21627;DHT22;10975;47.872;12.972;2023-07-31T10:10:41;22.80;99.90
21627;DHT22;10975;47.872;12.972;2023-07-31T10:13:08;22.80;99.90
21627;DHT22;10975;47.872;12.972;2023-07-31T10:15:36;22.70;99.90
21627;DHT22;10975;47.872;12.972;2023-07-31T10:18:03;22.80;99.90
21627;DHT22;10975;47.872;12.972;2023-07-31T10:20:32;22.70;99.90
21627;DHT22;10975;47.872;12.972;2023-07-31T10:22:58;22.80;99.90
21627;DHT22;10975;47.872;12.972;2023-07-31T10:25:26;22.90;99.90
21627;DHT22;10975;47.872;12.972;2023-07-31T10:27:52;23.10;99.90
21627;DHT22;10975;47.872;12.972;2023-07-31T10:30:20;23.00;99.90
21627;DHT22;10975;47.872;12.972;2023-07-31T10:32:48;22.70;99.90
21627;DHT22;10975;47.872;12.972;2023-07-31T10:35:17;22.50;99.90
21627;DHT22;10975;47.872;12.972;2023-07-31T10:37:44;22.50;99.90
21627;DHT22;10975;47.872;12.972;2023-07-31T10:40:12;22.50;99.90
21627;DHT22;10975;47.872;12.972;2023-07-31T10:42:46;22.50;99.90
21627;DHT22;10975;47.872;12.972;2023-07-31T10:45:14;22.70;99.90
21627;DHT22;10975;47.872;12.972;2023-07-31T10:47:49;22.90;99.90
21627;DHT22;10975;47.872;12.972;2023-07-31T10:50:24;22.90;99.90
21627;DHT22;10975;47.872;12.972;2023-07-31T10:52:51;23.00;99.90
21627;DHT22;10975;47.872;12.972;2023-07-31T10:57:55;23.10;99.90
21627;DHT22;10975;47.872;12.972;2023-07-31T11:00:26;23.20;99.90
21627;DHT22;10975;47.872;12.972;2023-07-31T11:06:07;23.30;99.90
21627;DHT22;10975;47.872;12.972;2023-07-31T11:08:21;23.50;99.90
21627;DHT22;10975;47.872;12.972;2023-07-31T11:10:50;23.50;99.90
21627;DHT22;10975;47.872;12.972;2023-07-31T11:13:17;23.60;99.90
21627;DHT22;10975;47.872;12.972;2023-07-31T11:15:43;23.60;99.90
21627;DHT22;10975;47.872;12.972;2023-07-31T11:18:10;23.60;99.90
21627;DHT22;10975;47.872;12.972;2023-07-31T11:20:38;23.40;99.90
21627;DHT22;10975;47.872;12.972;2023-07-31T11:23:06;23.50;99.90
21627;DHT22;10975;47.872;12.972;2023-07-31T11:25:33;23.50;99.90
21627;DHT22;10975;47.872;12.972;2023-07-31T11:28:03;23.50;99.90
21627;DHT22;10975;47.872;12.972;2023-07-31T11:30:30;23.50;99.90
21627;DHT22;10975;47.872;12.972;2023-07-31T11:32:57;23.40;99.90
21627;DHT22;10975;47.872;12.972;2023-07-31T11:38:22;23.20;99.90
21627;DHT22;10975;47.872;12.972;2023-07-31T11:40:50;23.30;99.90
21627;DHT22;10975;47.872;12.972;2023-07-31T11:43:18;23.30;99.90
21627;DHT22;10975;47.872;12.972;2023-07-31T11:45:48;23.40;99.90
21627;DHT22;10975;47.872;12.972;2023-07-31T11:48:22;23.50;99.90
21627;DHT22;10975;47.872;12.972;2023-07-31T11:50:52;23.50;99.90
21627;DHT22;10975;47.872;12.972;2023-07-31T11:53:27;23.30;99.90
21627;DHT22;10975;47.872;12.972;2023-07-31T11:55:55;23.30;99.90
21627;DHT22;10975;47.872;12.972;2023-07-31T11:58:23;23.30;99.90
21627;DHT22;10975;47.872;12.972;2023-07-31T12:00:50;23.50;99.90
21627;DHT22;10975;47.872;12.972;2023-07-31T12:03:18;23.50;99.90
21627;DHT22;10975;47.872;12.972;2023-07-31T12:05:46;23.50;99.90
21627;DHT22;10975;47.872;12.972;2023-07-31T12:08:13;23.60;99.90
21627;DHT22;10975;47.872;12.972;2023-07-31T12:10:40;23.70;99.90
21627;DHT22;10975;47.872;12.972;2023-07-31T12:13:08;23.80;99.90
21627;DHT22;10975;47.872;12.972;2023-07-31T12:15:43;23.50;99.90
21627;DHT22;10975;47.872;12.972;2023-07-31T12:18:12;23.30;99.90
21627;DHT22;10975;47.872;12.972;2023-07-31T12:20:40;23.20;99.90
21627;DHT22;10975;47.872;12.972;2023-07-31T12:23:07;23.10;99.90
21627;DHT22;10975;47.872;12.972;2023-07-31T12:25:33;23.10;99.90
21627;DHT22;10975;47.872;12.972;2023-07-31T12:28:03;23.20;99.90
21627;DHT22;10975;47.872;12.972;2023-07-31T12:30:34;23.30;99.90
21627;DHT22;10975;47.872;12.972;2023-07-31T12:33:05;23.30;99.90
21627;DHT22;10975;47.872;12.972;2023-07-31T12:35:36;23.50;99.90
21627;DHT22;10975;47.872;12.972;2023-07-31T12:38:03;23.50;99.90
21627;DHT22;10975;47.872;12.972;2023-07-31T12:40:30;23.50;99.90
21627;DHT22;10975;47.872;12.972;2023-07-31T12:43:01;23.60;99.90
21627;DHT22;10975;47.872;12.972;2023-07-31T12:45:31;23.50;99.90
21627;DHT22;10975;47.872;12.972;2023-07-31T12:47:58;23.50;99.90
21627;DHT22;10975;47.872;12.972;2023-07-31T12:50:27;23.50;99.90
21627;DHT22;10975;47.872;12.972;2023-07-31T12:52:54;23.60;99.90
21627;DHT22;10975;47.872;12.972;2023-07-31T12:55:22;23.60;99.90
21627;DHT22;10975;47.872;12.972;2023-07-31T12:57:49;23.70;99.90
21627;DHT22;10975;47.872;12.972;2023-07-31T13:00:16;23.70;99.90
21627;DHT22;10975;47.872;12.972;2023-07-31T13:02:43;23.50;99.90
21627;DHT22;10975;47.872;12.972;2023-07-31T13:05:10;23.50;99.90
21627;DHT22;10975;47.872;12.972;2023-07-31T13:07:37;23.40;99.90
21627;DHT22;10975;47.872;12.972;2023-07-31T13:10:05;23.30;99.90
21627;DHT22;10975;47.872;12.972;2023-07-31T13:12:32;23.40;99.90
21627;DHT22;10975;47.872;12.972;2023-07-31T13:14:59;23.50;99.90
21627;DHT22;10975;47.872;12.972;2023-07-31T13:17:26;23.60;99.90
21627;DHT22;10975;47.872;12.972;2023-07-31T13:19:53;23.70;99.90
21627;DHT22;10975;47.872;12.972;2023-07-31T13:22:20;24.00;99.90
21627;DHT22;10975;47.872;12.972;2023-07-31T13:24:46;24.10;99.90
21627;DHT22;10975;47.872;12.972;2023-07-31T13:27:14;24.20;99.90
21627;DHT22;10975;47.872;12.972;2023-07-31T13:29:45;24.20;99.90
21627;DHT22;10975;47.872;12.972;2023-07-31T13:32:12;24.20;99.90
21627;DHT22;10975;47.872;12.972;2023-07-31T13:34:38;24.10;99.90
21627;DHT22;10975;47.872;12.972;2023-07-31T13:37:05;24.10;99.90
21627;DHT22;10975;47.872;12.972;2023-07-31T13:39:35;24.30;99.90
21627;DHT22;10975;47.872;12.972;2023-07-31T13:42:02;24.30;99.90
21627;DHT22;10975;47.872;12.972;2023-07-31T13:44:29;24.30;99.90
21627;DHT22;10975;47.872;12.972;2023-07-31T13:46:56;24.40;99.90
21627;DHT22;10975;47.872;12.972;2023-07-31T13:49:22;24.60;99.90
21627;DHT22;10975;47.872;12.972;2023-07-31T13:51:49;24.60;99.90
21627;DHT22;10975;47.872;12.972;2023-07-31T13:54:16;24.60;99.90
21627;DHT22;10975;47.872;12.972;2023-07-31T13:56:43;24.70;99.90
21627;DHT22;10975;47.872;12.972;2023-07-31T13:59:10;24.80;99.90
21627;DHT22;10975;47.872;12.972;2023-07-31T14:01:36;24.90;99.90
21627;DHT22;10975;47.872;12.972;2023-07-31T14:04:03;24.90;99.90
21627;DHT22;10975;47.872;12.972;2023-07-31T14:06:30;25.00;99.90
21627;DHT22;10975;47.872;12.972;2023-07-31T14:08:57;25.20;99.90
21627;DHT22;10975;47.872;12.972;2023-07-31T14:11:23;25.40;99.90
21627;DHT22;10975;47.872;12.972;2023-07-31T14:13:50;25.40;99.90
21627;DHT22;10975;47.872;12.972;2023-07-31T14:16:17;25.10;99.90
21627;DHT22;10975;47.872;12.972;2023-07-31T14:18:44;25.10;99.90
21627;DHT22;10975;47.872;12.972;2023-07-31T14:21:12;25.00;99.90
21627;DHT22;10975;47.872;12.972;2023-07-31T14:23:39;25.00;99.90
21627;DHT22;10975;47.872;12.972;2023-07-31T14:26:06;25.10;99.90
21627;DHT22;10975;47.872;12.972;2023-07-31T14:28:33;25.10;99.90
21627;DHT22;10975;47.872;12.972;2023-07-31T14:31:00;25.00;99.90
21627;DHT22;10975;47.872;12.972;2023-07-31T14:33:26;25.00;99.90
21627;DHT22;10975;47.872;12.972;2023-07-31T14:35:53;24.90;99.90
21627;DHT22;10975;47.872;12.972;2023-07-31T14:38:20;24.80;99.90
21627;DHT22;10975;47.872;12.972;2023-07-31T14:40:47;24.90;99.90
21627;DHT22;10975;47.872;12.972;2023-07-31T14:43:14;24.90;99.90
21627;DHT22;10975;47.872;12.972;2023-07-31T14:45:41;25.00;99.90
21627;DHT22;10975;47.872;12.972;2023-07-31T14:48:16;25.00;99.90
21627;DHT22;10975;47.872;12.972;2023-07-31T14:50:43;25.10;99.90
21627;DHT22;10975;47.872;12.972;2023-07-31T14:53:09;24.90;99.90
21627;DHT22;10975;47.872;12.972;2023-07-31T14:55:36;24.70;99.90
21627;DHT22;10975;47.872;12.972;2023-07-31T14:58:03;24.80;99.90
21627;DHT22;10975;47.872;12.972;2023-07-31T15:00:30;24.70;99.90
21627;DHT22;10975;47.872;12.972;2023-07-31T15:02:56;24.90;99.90
21627;DHT22;10975;47.872;12.972;2023-07-31T15:05:23;24.90;99.90
21627;DHT22;10975;47.872;12.972;2023-07-31T15:07:50;24.90;99.90
21627;DHT22;10975;47.872;12.972;2023-07-31T15:10:18;24.90;99.90
21627;DHT22;10975;47.872;12.972;2023-07-31T15:12:45;24.90;99.90
21627;DHT22;10975;47.872;12.972;2023-07-31T15:15:12;24.70;99.90
21627;DHT22;10975;47.872;12.972;2023-07-31T15:17:38;24.50;99.90
21627;DHT22;10975;47.872;12.972;2023-07-31T15:20:05;24.60;99.90
21627;DHT22;10975;47.872;12.972;2023-07-31T15:22:32;24.70;99.90
21627;DHT22;10975;47.872;12.972;2023-07-31T15:24:59;24.70;99.90
21627;DHT22;10975;47.872;12.972;2023-07-31T15:27:26;24.90;99.90
21627;DHT22;10975;47.872;12.972;2023-07-31T15:29:52;24.90;99.90
21627;DHT22;10975;47.872;12.972;2023-07-31T15:32:19;24.80;99.90